Terminal Aerodrome Forecast
Issued by NWS

Home | Current Version | Previous Version | Text Only | Print | Product List | Glossary On
Versions: 1 2 3 4 5 6 7 8 9 10 11 12 13 14 15
058
FTUS45 KPIH 282320
TAFSUN
TAF
KSUN 282320Z 2900/2924 33011KT P6SM FEW080 FEW140
     FM291700 VRB06KT P6SM BKN050 OVC080
      AMD LTD TO CLD VIS AND WIND 2905/2913=

USA.gov is the U.S. government's official web portal to all federal, state and local government web resources and services.